createdAt,value
2022-07-31T00:04:24.384Z,1.30
2022-07-31T00:19:24.247Z,0.78
2022-07-31T00:34:24.219Z,0.77
2022-07-31T00:49:24.222Z,1.31
2022-07-31T01:04:24.314Z,0.90
2022-07-31T01:19:24.153Z,0.56
2022-07-31T01:34:24.213Z,0.21
2022-07-31T01:49:24.456Z,0.00
2022-07-31T02:04:24.299Z,0.09
2022-07-31T02:19:24.535Z,0.03
2022-07-31T02:34:30.010Z,0.06
2022-07-31T02:49:24.520Z,0.55
2022-07-31T03:04:24.595Z,0.76
2022-07-31T03:19:24.478Z,0.47
2022-07-31T03:34:24.512Z,0.44
2022-07-31T03:49:24.562Z,1.39
2022-07-31T04:04:28.934Z,1.16
2022-07-31T04:19:24.696Z,1.09
2022-07-31T04:34:24.667Z,1.42
2022-07-31T04:49:25.221Z,1.36
2022-07-31T05:04:25.086Z,1.09
2022-07-31T05:19:24.829Z,0.94
2022-07-31T05:34:24.793Z,1.09
2022-07-31T05:49:25.072Z,2.08
2022-07-31T06:04:24.915Z,2.11
2022-07-31T06:19:24.974Z,2.10
2022-07-31T06:34:25.022Z,2.14
2022-07-31T06:49:25.047Z,1.74
2022-07-31T07:04:24.944Z,2.85
2022-07-31T07:19:24.932Z,2.11
2022-07-31T07:34:25.076Z,1.41
2022-07-31T07:49:25.049Z,2.19
2022-07-31T08:04:25.112Z,2.68
2022-07-31T08:19:25.245Z,2.93
2022-07-31T08:34:31.500Z,3.07
2022-07-31T08:49:25.460Z,2.74
2022-07-31T09:04:25.053Z,3.85
2022-07-31T09:19:52.454Z,2.95
2022-07-31T09:34:25.397Z,2.28
2022-07-31T09:49:25.392Z,2.93
2022-07-31T10:04:25.428Z,2.57
2022-07-31T10:19:25.418Z,2.93
2022-07-31T10:34:25.571Z,3.35
2022-07-31T10:49:25.438Z,2.97
2022-07-31T11:04:25.625Z,2.92
2022-07-31T11:19:25.482Z,3.37
2022-07-31T11:34:25.538Z,2.89
2022-07-31T11:49:44.112Z,2.60
2022-07-31T12:04:25.828Z,3.02
2022-07-31T12:19:26.041Z,3.61
2022-07-31T12:34:25.863Z,3.23
2022-07-31T12:49:25.976Z,3.34
2022-07-31T13:04:26.046Z,4.13
2022-07-31T13:19:26.920Z,4.22
2022-07-31T13:34:29.550Z,3.75
2022-07-31T13:49:25.970Z,4.58
2022-07-31T14:04:26.060Z,3.82
2022-07-31T14:19:26.117Z,3.76
2022-07-31T14:34:35.252Z,4.73
2022-07-31T14:49:26.376Z,4.84
2022-07-31T15:04:26.301Z,4.25
2022-07-31T15:19:26.355Z,4.41
2022-07-31T15:34:27.158Z,3.27
2022-07-31T15:49:26.226Z,1.69
2022-07-31T16:04:26.432Z,2.03
2022-07-31T16:19:26.816Z,4.02
2022-07-31T16:34:26.664Z,3.35
2022-07-31T16:49:36.377Z,3.78
2022-07-31T17:04:26.422Z,4.46
2022-07-31T17:19:41.138Z,4.20
2022-07-31T17:34:26.504Z,1.93
2022-07-31T17:49:26.730Z,1.15
2022-07-31T18:04:26.631Z,2.38
2022-07-31T18:19:26.782Z,1.20
2022-07-31T18:34:26.667Z,0.24
2022-07-31T18:50:59.944Z,0.43
2022-07-31T19:04:26.970Z,1.65
2022-07-31T19:19:38.281Z,3.20
2022-07-31T19:34:27.018Z,4.32
2022-07-31T19:49:26.990Z,4.11
2022-07-31T20:04:26.941Z,3.91
2022-07-31T20:19:27.015Z,3.45
2022-07-31T20:34:27.107Z,3.41
2022-07-31T20:49:34.945Z,3.77
2022-07-31T21:04:27.438Z,3.80
2022-07-31T21:19:27.049Z,4.25
2022-07-31T21:34:27.141Z,3.46
2022-07-31T21:49:27.367Z,3.39
2022-07-31T22:04:32.175Z,3.42
2022-07-31T22:19:27.450Z,3.83
2022-07-31T22:34:37.508Z,4.09
2022-07-31T22:49:27.546Z,4.36
2022-07-31T23:04:27.576Z,4.21
2022-07-31T23:19:27.415Z,3.51
2022-07-31T23:34:27.459Z,3.25
2022-07-31T23:49:27.680Z,2.95
